AirNav   Everest Fuels
 
 350 users online  

5KY3 Saint Joseph Berea Heliport
Berea, Kentucky, USA

GOING TO BEREA?


FAA INFORMATION EFFECTIVE 18 JUNE 2020

Location

FAA Identifier: 5KY3
Lat/Long: 37-34-42.5000N 084-17-10.1000W
37-34.708333N 084-17.168333W
37.5784722,-84.2861389
(estimated)
Elevation: 972 ft. / 296 m (estimated)
Variation: 04E (1980)
From city: 1 mile SW of BEREA, KY
Time zone: UTC -4 (UTC -5 during Standard Time)
Zip code: 40403

Heliport Operations

Heliport use: Private use. Permission required prior to landing
Activation date: 08/2014
Control tower: no
ARTCC: INDIANAPOLIS CENTER
FSS: LOUISVILLE FLIGHT SERVICE STATION
Attendance: CONTINUOUS
Segmented circle: no
Lights: SS-SR
Beacon: white-green-yellow (heliport)

Heliport Communications

WX AWOS-3 at RGA (4 nm NW): 119.625 (859-985-5969)

Nearby radio navigation aids

VOR radial/distance  VOR name  Freq  Var
HYKr159/24.9LEXINGTON VOR/DME112.6000E
LOZr349/33.8LONDON VOR/DME116.1003W

 
NDB name  Hdg/Dist  Freq  Var  ID
SECO231/16.239303WXYC -..- -.-- -.-.
GOODALL093/22.731103WDVK -.. ...- -.-
MOUNT STERLING213/32.321006WIOB .. --- -...
CUMBERLAND RIVER033/39.738805WCDX -.-. -.. -..-

Heliport Services

Runway Information

Helipad H1

Dimensions: 42 x 42 ft. / 13 x 13 m
Surface: concrete
Latitude: 37-34.708333N
Longitude: 084-17.168333W
Elevation: 972.0 ft.
Traffic pattern: leftleft

Heliport Ownership and Management from official FAA records

Ownership: Privately-owned
Owner: SAINT JOSEPH BEREA
305 ESTILL STREET
BEREA, KY 40403
Manager: JAMES HAVENSTEIN
305 ESTILL STREET
BEREA, KY 40403
Phone 859-986-6413
ADNL CONTACT: CHAD EGGERS 859-986-6522.

Additional Remarks

FOR CD CTC LEXINGTON APCH AT 859-514-7890.

Instrument Procedures

There are no published instrument procedures at 5KY3.

Some nearby airports with instrument procedures:

KRGA - Central Kentucky Regional Airport (4 nm NW)
KDVK - Stuart Powell Field Airport (23 nm W)
KLOZ - London-Corbin Airport-Magee Field (31 nm S)
KLEX - Blue Grass Airport (31 nm NW)
KIOB - Mount Sterling-Montgomery County Airport (32 nm NE)
 
Loc | Ops | Rwys | IFR | FBO | Links
Com | Nav | Svcs | Stats | Notes
Aerial photo
No photo
 
Airport distance calculator
Flying to Saint Joseph Berea Heliport? Find the distance to fly.

From to 5KY3

Sunrise and sunset
Times for 13-Jul-2020
 Local
(UTC-4)
 Zulu
(UTC)
Morning civil twilight05:5809:58
Sunrise06:2810:28
Sunset20:5800:58
Evening civil twilight21:2801:28

Current date and time
Zulu (UTC)  13-Jul-2020 06:32:08
Local (UTC-4)  13-Jul-2020 02:32:08
 
METAR
KRGA 
4nm NW 
130615Z AUTO 00000KT M1/4SM OVC002 19/19 A2991 RMK AO2
TAF
KLEX 
31nm NW 
130520Z 1306/1406 VRB03KT P6SM SKC TEMPO 1309/1311 4SM BR FM131500 35006KT P6SM SCT250 FM140100 VRB03KT P6SM SKC
KLOZ 
32nm S 
130538Z 1306/1406 VRB03KT P6SM FEW040 SCT080 FM130800 VRB03KT 1SM BR SCT002 TEMPO 1308/1312 1/2SM FG BKN002 FM131300 VRB03KT P6SM SCT005 FM131600 01005KT P6SM FEW040
KSME 
35nm SW 
130538Z 1306/1406 VRB03KT P6SM FEW040 SCT080 FM130900 VRB03KT 4SM BR SKC TEMPO 1309/1312 2SM BR SCT002 FM131300 VRB03KT P6SM SCT005 FM131600 01005KT P6SM FEW040
NOTAMs
Click for the latest NOTAMs
NOTAMs are issued by the DoD/FAA and will open in a separate window not controlled by AirNav.

 

 
 

Would you like to see your business listed on this page?

 If your business provides an interesting product or service to pilots, flight crews, aircraft, or users of the Saint Joseph Berea Heliport, you should consider listing it here.  To start the listing process, click on the button below
 
Add a business
 

Other Pages about Saint Joseph Berea Heliport

Update a link
 
Copyright © AirNav, LLC. All rights reserved. Privacy Policy  Contact